sensor_id;sensor_type;location;lat;lon;timestamp;pressure;altitude;pressure_sealevel;temperature;humidity
73151;BME280;61354;50.758;6.106;2023-08-20T00:00:17;99586.53;;;19.55;100.00
73151;BME280;61354;50.758;6.106;2023-08-20T00:02:45;99588.16;;;19.63;100.00
73151;BME280;61354;50.758;6.106;2023-08-20T00:05:12;99594.56;;;19.64;100.00
73151;BME280;61354;50.758;6.106;2023-08-20T00:07:39;99611.53;;;19.42;100.00
73151;BME280;61354;50.758;6.106;2023-08-20T00:10:05;99613.91;;;19.44;100.00
73151;BME280;61354;50.758;6.106;2023-08-20T00:12:31;99624.38;;;19.50;100.00
73151;BME280;61354;50.758;6.106;2023-08-20T00:14:59;99629.22;;;19.46;100.00
73151;BME280;61354;50.758;6.106;2023-08-20T00:17:37;99630.03;;;19.40;100.00
73151;BME280;61354;50.758;6.106;2023-08-20T00:20:05;99632.44;;;19.41;100.00
73151;BME280;61354;50.758;6.106;2023-08-20T00:22:36;99632.44;;;19.41;100.00
73151;BME280;61354;50.758;6.106;2023-08-20T00:25:02;99625.19;;;19.36;100.00
73151;BME280;61354;50.758;6.106;2023-08-20T00:27:31;99624.81;;;19.38;100.00
73151;BME280;61354;50.758;6.106;2023-08-20T00:29:57;99625.63;;;19.31;100.00
73151;BME280;61354;50.758;6.106;2023-08-20T00:32:23;99627.19;;;19.43;100.00
73151;BME280;61354;50.758;6.106;2023-08-20T00:34:49;99623.59;;;19.46;100.00
73151;BME280;61354;50.758;6.106;2023-08-20T00:37:14;99627.63;;;19.38;100.00
73151;BME280;61354;50.758;6.106;2023-08-20T00:39:40;99630.00;;;19.43;100.00
73151;BME280;61354;50.758;6.106;2023-08-20T00:42:06;99622.00;;;19.38;100.00
73151;BME280;61354;50.758;6.106;2023-08-20T00:44:33;99611.53;;;19.42;100.00
73151;BME280;61354;50.758;6.106;2023-08-20T00:47:01;99609.13;;;19.37;100.00
73151;BME280;61354;50.758;6.106;2023-08-20T00:49:28;99608.72;;;19.35;100.00
73151;BME280;61354;50.758;6.106;2023-08-20T00:51:54;99603.50;;;19.26;100.00
73151;BME280;61354;50.758;6.106;2023-08-20T00:54:20;99606.31;;;19.23;100.00
73151;BME280;61354;50.758;6.106;2023-08-20T00:56:47;99601.06;;;19.32;100.00
73151;BME280;61354;50.758;6.106;2023-08-20T00:59:14;99598.66;;;19.34;100.00
73151;BME280;61354;50.758;6.106;2023-08-20T01:01:40;99595.44;;;19.32;100.00
73151;BME280;61354;50.758;6.106;2023-08-20T01:04:06;99597.44;;;19.35;100.00
73151;BME280;61354;50.758;6.106;2023-08-20T01:12:00;99593.06;;;19.20;100.00
73151;BME280;61354;50.758;6.106;2023-08-20T01:14:27;99589.06;;;19.10;100.00
73151;BME280;61354;50.758;6.106;2023-08-20T01:16:53;99588.25;;;19.13;100.00
73151;BME280;61354;50.758;6.106;2023-08-20T01:19:21;99596.28;;;19.15;100.00
73151;BME280;61354;50.758;6.106;2023-08-20T01:22:13;99586.63;;;19.16;100.00
73151;BME280;61354;50.758;6.106;2023-08-20T01:27:43;99591.06;;;19.09;100.00
73151;BME280;61354;50.758;6.106;2023-08-20T01:30:15;99599.09;;;19.07;100.00
73151;BME280;61354;50.758;6.106;2023-08-20T01:32:41;99597.91;;;19.08;100.00
73151;BME280;61354;50.758;6.106;2023-08-20T01:35:13;99607.16;;;19.09;100.00
73151;BME280;61354;50.758;6.106;2023-08-20T01:37:41;99601.91;;;19.07;100.00
73151;BME280;61354;50.758;6.106;2023-08-20T01:40:08;99596.31;;;19.00;100.00
73151;BME280;61354;50.758;6.106;2023-08-20T01:42:39;99600.72;;;18.94;100.00
73151;BME280;61354;50.758;6.106;2023-08-20T01:45:06;99603.53;;;18.94;100.00
73151;BME280;61354;50.758;6.106;2023-08-20T01:47:32;99606.78;;;18.96;100.00
73151;BME280;61354;50.758;6.106;2023-08-20T01:49:58;99603.56;;;18.87;100.00
73151;BME280;61354;50.758;6.106;2023-08-20T01:52:24;99610.78;;;18.95;100.00
73151;BME280;61354;50.758;6.106;2023-08-20T01:54:50;99622.03;;;18.81;100.00
73151;BME280;61354;50.758;6.106;2023-08-20T01:57:15;99620.44;;;18.87;100.00
73151;BME280;61354;50.758;6.106;2023-08-20T01:59:41;99628.50;;;18.71;100.00
73151;BME280;61354;50.758;6.106;2023-08-20T02:02:06;99636.91;;;18.78;100.00
73151;BME280;61354;50.758;6.106;2023-08-20T02:04:33;99641.34;;;18.72;100.00
73151;BME280;61354;50.758;6.106;2023-08-20T02:06:59;99658.19;;;18.68;100.00
73151;BME280;61354;50.758;6.106;2023-08-20T02:09:25;99654.63;;;18.75;100.00
73151;BME280;61354;50.758;6.106;2023-08-20T02:11:51;99657.41;;;18.82;100.00
73151;BME280;61354;50.758;6.106;2023-08-20T02:14:17;99659.41;;;18.78;100.00
73151;BME280;61354;50.758;6.106;2023-08-20T02:16:42;99662.19;;;18.63;100.00
73151;BME280;61354;50.758;6.106;2023-08-20T02:19:08;99667.06;;;18.74;100.00
73151;BME280;61354;50.758;6.106;2023-08-20T02:21:34;99666.25;;;18.73;100.00
73151;BME280;61354;50.758;6.106;2023-08-20T02:24:00;99666.66;;;18.72;100.00
73151;BME280;61354;50.758;6.106;2023-08-20T02:26:25;99669.47;;;18.72;100.00
73151;BME280;61354;50.758;6.106;2023-08-20T02:28:51;99672.66;;;18.70;100.00
73151;BME280;61354;50.758;6.106;2023-08-20T02:31:17;99667.47;;;18.76;100.00
73151;BME280;61354;50.758;6.106;2023-08-20T02:33:42;99673.09;;;18.76;100.00
73151;BME280;61354;50.758;6.106;2023-08-20T02:36:08;99671.09;;;18.80;100.00
73151;BME280;61354;50.758;6.106;2023-08-20T02:38:33;99667.06;;;18.74;100.00
73151;BME280;61354;50.758;6.106;2023-08-20T02:41:00;99657.38;;;18.64;100.00
73151;BME280;61354;50.758;6.106;2023-08-20T02:43:26;99664.59;;;18.69;100.00
73151;BME280;61354;50.758;6.106;2023-08-20T02:45:51;99662.25;;;18.71;100.00
73151;BME280;61354;50.758;6.106;2023-08-20T02:48:17;99659.34;;;18.42;100.00
73151;BME280;61354;50.758;6.106;2023-08-20T02:50:42;99663.78;;;18.50;100.00
73151;BME280;61354;50.758;6.106;2023-08-20T02:53:08;99667.81;;;18.46;100.00
73151;BME280;61354;50.758;6.106;2023-08-20T02:55:34;99672.63;;;18.52;100.00
73151;BME280;61354;50.758;6.106;2023-08-20T02:58:01;99671.00;;;18.62;100.00
73151;BME280;61354;50.758;6.106;2023-08-20T03:00:28;99669.41;;;18.57;100.00
73151;BME280;61354;50.758;6.106;2023-08-20T03:02:54;99678.66;;;18.61;100.00
73151;BME280;61354;50.758;6.106;2023-08-20T03:05:20;99679.06;;;18.56;100.00
73151;BME280;61354;50.758;6.106;2023-08-20T03:07:46;99676.63;;;18.62;100.00
73151;BME280;61354;50.758;6.106;2023-08-20T03:10:12;99671.03;;;18.58;100.00
73151;BME280;61354;50.758;6.106;2023-08-20T03:12:37;99675.03;;;18.57;100.00
73151;BME280;61354;50.758;6.106;2023-08-20T03:15:03;99682.28;;;18.66;100.00
73151;BME280;61354;50.758;6.106;2023-08-20T03:17:28;99681.47;;;18.65;100.00
73151;BME280;61354;50.758;6.106;2023-08-20T03:19:56;99686.28;;;18.61;100.00
73151;BME280;61354;50.758;6.106;2023-08-20T03:22:23;99683.06;;;18.55;100.00
73151;BME280;61354;50.758;6.106;2023-08-20T03:24:49;99681.47;;;18.65;100.00
73151;BME280;61354;50.758;6.106;2023-08-20T03:27:16;99681.88;;;18.63;100.00
73151;BME280;61354;50.758;6.106;2023-08-20T03:29:42;99678.25;;;18.59;100.00
73151;BME280;61354;50.758;6.106;2023-08-20T03:32:07;99691.09;;;18.53;100.00
73151;BME280;61354;50.758;6.106;2023-08-20T03:34:33;99683.50;;;18.68;100.00
73151;BME280;61354;50.758;6.106;2023-08-20T03:36:58;99674.31;;;18.75;100.00
73151;BME280;61354;50.758;6.106;2023-08-20T03:39:24;99669.47;;;18.72;100.00
73151;BME280;61354;50.758;6.106;2023-08-20T03:41:50;99683.09;;;18.59;100.00
73151;BME280;61354;50.758;6.106;2023-08-20T03:44:15;99675.84;;;18.61;100.00
73151;BME280;61354;50.758;6.106;2023-08-20T03:46:41;99681.53;;;18.72;100.00
73151;BME280;61354;50.758;6.106;2023-08-20T03:49:07;99684.72;;;18.74;100.00
73151;BME280;61354;50.758;6.106;2023-08-20T03:51:32;99671.09;;;18.80;100.00
73151;BME280;61354;50.758;6.106;2023-08-20T03:53:58;99683.94;;;18.77;100.00
73151;BME280;61354;50.758;6.106;2023-08-20T03:56:23;99675.09;;;18.72;100.00
73151;BME280;61354;50.758;6.106;2023-08-20T03:58:49;99687.88;;;18.51;100.00
73151;BME280;61354;50.758;6.106;2023-08-20T04:01:14;99683.50;;;18.64;100.00
73151;BME280;61354;50.758;6.106;2023-08-20T04:03:40;99686.72;;;18.67;100.00
73151;BME280;61354;50.758;6.106;2023-08-20T04:06:05;99686.31;;;18.64;100.00
73151;BME280;61354;50.758;6.106;2023-08-20T04:08:32;99686.28;;;18.57;100.00
73151;BME280;61354;50.758;6.106;2023-08-20T04:10:57;99687.09;;;18.51;100.00
73151;BME280;61354;50.758;6.106;2023-08-20T04:13:23;99691.06;;;18.39;100.00
73151;BME280;61354;50.758;6.106;2023-08-20T04:15:49;99689.47;;;18.45;100.00
73151;BME280;61354;50.758;6.106;2023-08-20T04:18:14;99691.09;;;18.46;100.00
73151;BME280;61354;50.758;6.106;2023-08-20T04:20:40;99702.34;;;18.46;100.00
73151;BME280;61354;50.758;6.106;2023-08-20T04:23:05;99695.09;;;18.38;100.00
73151;BME280;61354;50.758;6.106;2023-08-20T04:25:31;99689.47;;;18.38;100.00
73151;BME280;61354;50.758;6.106;2023-08-20T04:27:56;99706.31;;;18.34;100.00
73151;BME280;61354;50.758;6.106;2023-08-20T04:30:22;99704.69;;;18.37;100.00
73151;BME280;61354;50.758;6.106;2023-08-20T04:32:47;99715.16;;;18.40;100.00
73151;BME280;61354;50.758;6.106;2023-08-20T04:35:13;99713.97;;;18.41;100.00
73151;BME280;61354;50.758;6.106;2023-08-20T04:37:39;99713.56;;;18.39;100.00
73151;BME280;61354;50.758;6.106;2023-08-20T04:40:05;99714.75;;;18.34;100.00
73151;BME280;61354;50.758;6.106;2023-08-20T04:42:31;99708.72;;;18.32;100.00
73151;BME280;61354;50.758;6.106;2023-08-20T04:44:57;99712.75;;;18.35;100.00
73151;BME280;61354;50.758;6.106;2023-08-20T04:47:22;99705.53;;;18.34;100.00
73151;BME280;61354;50.758;6.106;2023-08-20T04:49:48;99714.34;;;18.29;100.00
73151;BME280;61354;50.758;6.106;2023-08-20T04:52:14;99708.72;;;18.32;100.00
73151;BME280;61354;50.758;6.106;2023-08-20T04:54:40;99716.75;;;18.34;100.00
73151;BME280;61354;50.758;6.106;2023-08-20T04:57:06;99719.97;;;18.29;100.00
73151;BME280;61354;50.758;6.106;2023-08-20T04:59:32;99727.22;;;18.33;100.00
73151;BME280;61354;50.758;6.106;2023-08-20T05:01:57;99723.16;;;18.27;100.00
73151;BME280;61354;50.758;6.106;2023-08-20T05:04:23;99730.41;;;18.32;100.00
73151;BME280;61354;50.758;6.106;2023-08-20T05:06:48;99724.78;;;18.32;100.00
73151;BME280;61354;50.758;6.106;2023-08-20T05:09:14;99732.00;;;18.33;100.00
73151;BME280;61354;50.758;6.106;2023-08-20T05:11:41;99730.41;;;18.35;100.00
73151;BME280;61354;50.758;6.106;2023-08-20T05:14:06;99734.41;;;18.31;100.00
73151;BME280;61354;50.758;6.106;2023-08-20T05:16:32;99724.81;;;18.39;100.00
73151;BME280;61354;50.758;6.106;2023-08-20T05:18:57;99728.03;;;18.37;100.00
73151;BME280;61354;50.758;6.106;2023-08-20T05:21:23;99737.66;;;18.40;100.00
73151;BME280;61354;50.758;6.106;2023-08-20T05:23:48;99737.66;;;18.40;100.00
73151;BME280;61354;50.758;6.106;2023-08-20T05:26:14;99745.75;;;18.52;100.00
73151;BME280;61354;50.758;6.106;2023-08-20T05:28:40;99746.56;;;18.56;100.00
73151;BME280;61354;50.758;6.106;2023-08-20T05:31:06;99750.56;;;18.55;100.00
73151;BME280;61354;50.758;6.106;2023-08-20T05:33:31;99745.78;;;18.59;100.00
73151;BME280;61354;50.758;6.106;2023-08-20T05:35:58;99740.97;;;18.63;100.00
73151;BME280;61354;50.758;6.106;2023-08-20T05:38:24;99756.22;;;18.62;100.00
73151;BME280;61354;50.758;6.106;2023-08-20T05:40:50;99752.59;;;18.58;100.00
73151;BME280;61354;50.758;6.106;2023-08-20T05:43:15;99748.63;;;18.67;100.00
73151;BME280;61354;50.758;6.106;2023-08-20T05:45:41;99757.00;;;18.56;100.00
73151;BME280;61354;50.758;6.106;2023-08-20T05:48:07;99769.16;;;18.71;100.00
73151;BME280;61354;50.758;6.106;2023-08-20T05:50:32;99759.88;;;18.74;100.00
73151;BME280;61354;50.758;6.106;2023-08-20T05:52:58;99748.66;;;18.77;100.00
73151;BME280;61354;50.758;6.106;2023-08-20T05:55:24;99746.66;;;18.81;100.00
73151;BME280;61354;50.758;6.106;2023-08-20T05:57:49;99743.44;;;18.76;100.00
73151;BME280;61354;50.758;6.106;2023-08-20T06:00:15;99745.03;;;18.73;100.00
73151;BME280;61354;50.758;6.106;2023-08-20T06:02:43;99751.44;;;18.74;100.00
73151;BME280;61354;50.758;6.106;2023-08-20T06:05:09;99752.28;;;18.81;100.00
73151;BME280;61354;50.758;6.106;2023-08-20T06:07:35;99754.72;;;18.83;100.00
73151;BME280;61354;50.758;6.106;2023-08-20T06:10:01;99754.25;;;18.74;100.00
73151;BME280;61354;50.758;6.106;2023-08-20T06:12:26;99751.81;;;18.69;100.00
73151;BME280;61354;50.758;6.106;2023-08-20T06:14:52;99752.25;;;18.74;100.00
73151;BME280;61354;50.758;6.106;2023-08-20T06:17:18;99755.50;;;18.80;100.00
73151;BME280;61354;50.758;6.106;2023-08-20T06:19:44;99759.06;;;18.70;100.00
73151;BME280;61354;50.758;6.106;2023-08-20T06:22:10;99752.28;;;18.81;100.00
73151;BME280;61354;50.758;6.106;2023-08-20T06:24:35;99745.03;;;18.77;100.00
73151;BME280;61354;50.758;6.106;2023-08-20T06:27:01;99753.91;;;18.86;100.00
73151;BME280;61354;50.758;6.106;2023-08-20T06:29:27;99751.06;;;18.82;100.00
73151;BME280;61354;50.758;6.106;2023-08-20T06:31:52;99765.19;;;19.00;100.00
73151;BME280;61354;50.758;6.106;2023-08-20T06:34:18;99756.31;;;18.80;100.00
73151;BME280;61354;50.758;6.106;2023-08-20T06:36:43;99765.97;;;18.94;100.00
73151;BME280;61354;50.758;6.106;2023-08-20T06:39:09;99761.16;;;19.01;100.00
73151;BME280;61354;50.758;6.106;2023-08-20T06:41:35;99766.78;;;19.01;100.00
73151;BME280;61354;50.758;6.106;2023-08-20T06:44:01;99767.59;;;19.05;100.00
73151;BME280;61354;50.758;6.106;2023-08-20T06:46:27;99760.38;;;19.19;100.00
73151;BME280;61354;50.758;6.106;2023-08-20T06:48:53;99755.94;;;19.18;100.00
73151;BME280;61354;50.758;6.106;2023-08-20T06:51:21;99755.56;;;19.23;100.00
73151;BME280;61354;50.758;6.106;2023-08-20T06:53:48;99753.94;;;19.25;100.00
73151;BME280;61354;50.758;6.106;2023-08-20T06:56:13;99750.72;;;19.30;100.00
73151;BME280;61354;50.758;6.106;2023-08-20T06:58:40;99750.75;;;19.37;100.00
73151;BME280;61354;50.758;6.106;2023-08-20T07:01:07;99751.53;;;19.38;100.00
73151;BME280;61354;50.758;6.106;2023-08-20T07:03:42;99756.34;;;19.45;100.00
73151;BME280;61354;50.758;6.106;2023-08-20T07:06:08;99753.16;;;19.50;100.00
73151;BME280;61354;50.758;6.106;2023-08-20T07:08:35;99749.13;;;19.47;100.00
73151;BME280;61354;50.758;6.106;2023-08-20T07:11:02;99749.91;;;19.58;100.00
73151;BME280;61354;50.758;6.106;2023-08-20T07:13:28;99753.94;;;19.65;100.00
73151;BME280;61354;50.758;6.106;2023-08-20T07:15:54;99745.09;;;19.48;100.00
73151;BME280;61354;50.758;6.106;2023-08-20T07:18:19;99749.13;;;19.51;100.00
73151;BME280;61354;50.758;6.106;2023-08-20T07:20:45;99751.94;;;19.61;100.00
73151;BME280;61354;50.758;6.106;2023-08-20T07:23:11;99749.91;;;19.69;100.00
73151;BME280;61354;50.758;6.106;2023-08-20T07:25:37;99749.91;;;19.69;100.00
73151;BME280;61354;50.758;6.106;2023-08-20T07:28:04;99750.72;;;19.55;100.00
73151;BME280;61354;50.758;6.106;2023-08-20T07:30:30;99749.13;;;19.69;100.00
73151;BME280;61354;50.758;6.106;2023-08-20T07:32:56;99744.28;;;19.80;100.00
73151;BME280;61354;50.758;6.106;2023-08-20T07:35:21;99749.09;;;19.83;100.00
73151;BME280;61354;50.758;6.106;2023-08-20T07:37:47;99748.72;;;19.70;100.00
73151;BME280;61354;50.758;6.106;2023-08-20T07:40:13;99752.72;;;19.80;100.00
73151;BME280;61354;50.758;6.106;2023-08-20T07:42:40;99756.34;;;19.91;100.00
73151;BME280;61354;50.758;6.106;2023-08-20T07:45:06;99746.66;;;19.99;100.00
73151;BME280;61354;50.758;6.106;2023-08-20T07:47:33;99751.50;;;19.88;100.00
73151;BME280;61354;50.758;6.106;2023-08-20T07:49:59;99753.09;;;20.03;100.00
73151;BME280;61354;50.758;6.106;2023-08-20T07:52:24;99750.63;;;20.13;100.00
73151;BME280;61354;50.758;6.106;2023-08-20T07:54:50;99759.06;;;20.20;100.00
73151;BME280;61354;50.758;6.106;2023-08-20T07:57:16;99761.09;;;20.16;100.00
73151;BME280;61354;50.758;6.106;2023-08-20T07:59:41;99761.84;;;20.23;100.00
73151;BME280;61354;50.758;6.106;2023-08-20T08:02:07;99758.22;;;20.33;100.00
73151;BME280;61354;50.758;6.106;2023-08-20T08:04:33;99756.56;;;20.50;100.00
73151;BME280;61354;50.758;6.106;2023-08-20T08:06:59;99765.81;;;20.40;100.00
73151;BME280;61354;50.758;6.106;2023-08-20T08:09:27;99772.25;;;20.58;100.00
73151;BME280;61354;50.758;6.106;2023-08-20T08:11:53;99770.63;;;20.57;100.00
73151;BME280;61354;50.758;6.106;2023-08-20T08:14:19;99770.56;;;20.65;100.00
73151;BME280;61354;50.758;6.106;2023-08-20T08:16:45;99772.16;;;20.69;100.00
73151;BME280;61354;50.758;6.106;2023-08-20T08:19:11;99768.94;;;20.74;100.00
73151;BME280;61354;50.758;6.106;2023-08-20T08:21:37;99774.59;;;20.74;100.00
73151;BME280;61354;50.758;6.106;2023-08-20T08:24:03;99767.25;;;20.84;100.00
73151;BME280;61354;50.758;6.106;2023-08-20T08:26:29;99765.56;;;20.94;100.00
73151;BME280;61354;50.758;6.106;2023-08-20T08:28:55;99769.97;;;20.98;100.00
73151;BME280;61354;50.758;6.106;2023-08-20T08:31:21;99771.16;;;21.08;100.00
73151;BME280;61354;50.758;6.106;2023-08-20T08:33:46;99771.13;;;21.12;100.00
73151;BME280;61354;50.758;6.106;2023-08-20T08:36:12;99782.31;;;21.22;100.00
73151;BME280;61354;50.758;6.106;2023-08-20T08:38:38;99774.66;;;21.23;100.00
73151;BME280;61354;50.758;6.106;2023-08-20T08:41:09;99771.44;;;21.24;100.00
73151;BME280;61354;50.758;6.106;2023-08-20T08:43:37;99784.56;;;21.52;100.00
73151;BME280;61354;50.758;6.106;2023-08-20T08:46:06;99779.34;;;21.47;100.00
73151;BME280;61354;50.758;6.106;2023-08-20T08:48:34;99779.72;;;21.53;100.00
73151;BME280;61354;50.758;6.106;2023-08-20T08:51:01;99780.47;;;21.57;100.00
73151;BME280;61354;50.758;6.106;2023-08-20T08:53:27;99778.91;;;21.52;100.00
73151;BME280;61354;50.758;6.106;2023-08-20T08:55:53;99769.91;;;21.65;100.00
73151;BME280;61354;50.758;6.106;2023-08-20T08:58:19;99779.53;;;21.74;100.00
73151;BME280;61354;50.758;6.106;2023-08-20T09:00:45;99779.47;;;21.81;100.00
73151;BME280;61354;50.758;6.106;2023-08-20T09:03:10;99784.22;;;21.88;100.00
73151;BME280;61354;50.758;6.106;2023-08-20T09:05:49;99783.75;;;21.93;100.00
73151;BME280;61354;50.758;6.106;2023-08-20T09:08:22;99783.38;;;21.91;100.00
73151;BME280;61354;50.758;6.106;2023-08-20T09:10:52;99784.97;;;21.96;100.00
73151;BME280;61354;50.758;6.106;2023-08-20T09:13:22;99783.19;;;22.13;100.00
73151;BME280;61354;50.758;6.106;2023-08-20T09:15:51;99781.97;;;22.14;100.00
73151;BME280;61354;50.758;6.106;2023-08-20T09:18:17;99789.94;;;22.22;100.00
73151;BME280;61354;50.758;6.106;2023-08-20T09:20:42;99779.34;;;22.30;100.00
73151;BME280;61354;50.758;6.106;2023-08-20T09:23:12;99775.22;;;22.38;100.00
73151;BME280;61354;50.758;6.106;2023-08-20T09:25:41;99778.69;;;22.53;100.00
73151;BME280;61354;50.758;6.106;2023-08-20T09:28:07;99784.56;;;22.66;100.00
73151;BME280;61354;50.758;6.106;2023-08-20T09:30:33;99783.03;;;22.92;100.00
73151;BME280;61354;50.758;6.106;2023-08-20T09:35:32;99789.41;;;22.99;100.00
73151;BME280;61354;50.758;6.106;2023-08-20T09:38:02;99797.97;;;23.23;100.00
73151;BME280;61354;50.758;6.106;2023-08-20T09:40:28;99792.88;;;23.11;100.00
73151;BME280;61354;50.758;6.106;2023-08-20T09:42:54;99782.84;;;23.06;100.00
73151;BME280;61354;50.758;6.106;2023-08-20T09:45:21;99790.66;;;23.22;100.00
73151;BME280;61354;50.758;6.106;2023-08-20T09:47:49;99788.97;;;23.28;100.00
73151;BME280;61354;50.758;6.106;2023-08-20T09:50:18;99790.13;;;23.30;100.00
73151;BME280;61354;50.758;6.106;2023-08-20T09:53:03;99782.66;;;23.17;100.00
73151;BME280;61354;50.758;6.106;2023-08-20T09:55:33;99783.94;;;23.12;100.00
73151;BME280;61354;50.758;6.106;2023-08-20T09:58:02;99781.16;;;23.08;100.00
73151;BME280;61354;50.758;6.106;2023-08-20T10:00:28;99787.91;;;22.91;100.00
73151;BME280;61354;50.758;6.106;2023-08-20T10:02:54;99785.13;;;23.15;100.00
73151;BME280;61354;50.758;6.106;2023-08-20T10:05:22;99789.66;;;23.36;100.00
73151;BME280;61354;50.758;6.106;2023-08-20T10:07:49;99789.13;;;23.44;100.00
73151;BME280;61354;50.758;6.106;2023-08-20T10:10:14;99775.56;;;23.55;100.00
73151;BME280;61354;50.758;6.106;2023-08-20T10:12:42;99773.75;;;23.69;100.00
73151;BME280;61354;50.758;6.106;2023-08-20T10:15:10;99775.03;;;23.88;100.00
73151;BME280;61354;50.758;6.106;2023-08-20T10:17:37;99777.19;;;23.80;97.14
73151;BME280;61354;50.758;6.106;2023-08-20T10:20:04;99775.09;;;23.84;97.99
73151;BME280;61354;50.758;6.106;2023-08-20T10:22:43;99772.63;;;23.86;98.80
73151;BME280;61354;50.758;6.106;2023-08-20T10:25:23;99780.91;;;23.77;93.87
73151;BME280;61354;50.758;6.106;2023-08-20T10:27:48;99781.97;;;23.60;92.55
73151;BME280;61354;50.758;6.106;2023-08-20T10:30:18;99787.94;;;23.69;96.33
73151;BME280;61354;50.758;6.106;2023-08-20T10:32:51;99775.16;;;23.80;93.89
73151;BME280;61354;50.758;6.106;2023-08-20T10:35:22;99775.88;;;23.85;96.03
73151;BME280;61354;50.758;6.106;2023-08-20T10:38:01;99780.28;;;23.66;92.72
73151;BME280;61354;50.758;6.106;2023-08-20T10:40:57;99788.16;;;23.78;94.38
73151;BME280;61354;50.758;6.106;2023-08-20T10:46:17;99777.50;;;23.86;93.25
73151;BME280;61354;50.758;6.106;2023-08-20T10:51:36;99783.25;;;23.82;94.41
73151;BME280;61354;50.758;6.106;2023-08-20T10:54:04;99790.63;;;23.76;95.73
73151;BME280;61354;50.758;6.106;2023-08-20T10:59:13;99792.31;;;23.73;97.79
73151;BME280;61354;50.758;6.106;2023-08-20T11:01:39;99785.69;;;23.80;95.14
73151;BME280;61354;50.758;6.106;2023-08-20T11:04:05;99788.69;;;23.93;94.23
73151;BME280;61354;50.758;6.106;2023-08-20T11:06:33;99789.84;;;24.19;96.54
73151;BME280;61354;50.758;6.106;2023-08-20T11:08:59;99788.66;;;24.40;93.62
73151;BME280;61354;50.758;6.106;2023-08-20T11:11:25;99788.59;;;24.43;95.09
73151;BME280;61354;50.758;6.106;2023-08-20T11:13:51;99789.22;;;24.51;95.07
73151;BME280;61354;50.758;6.106;2023-08-20T11:16:17;99793.31;;;24.50;92.73
73151;BME280;61354;50.758;6.106;2023-08-20T11:18:44;99790.28;;;24.37;91.90
73151;BME280;61354;50.758;6.106;2023-08-20T11:21:11;99788.69;;;24.36;91.28
73151;BME280;61354;50.758;6.106;2023-08-20T11:23:39;99783.78;;;24.40;91.22
73151;BME280;61354;50.758;6.106;2023-08-20T11:26:09;99783.84;;;24.57;90.53
73151;BME280;61354;50.758;6.106;2023-08-20T11:28:35;99782.53;;;24.61;90.21
73151;BME280;61354;50.758;6.106;2023-08-20T11:31:01;99780.94;;;24.60;87.96
73151;BME280;61354;50.758;6.106;2023-08-20T11:33:27;99779.56;;;24.48;87.66
73151;BME280;61354;50.758;6.106;2023-08-20T11:35:54;99778.75;;;24.68;88.02
73151;BME280;61354;50.758;6.106;2023-08-20T11:38:22;99770.22;;;24.68;87.40
73151;BME280;61354;50.758;6.106;2023-08-20T11:40:48;99775.53;;;24.66;87.34
73151;BME280;61354;50.758;6.106;2023-08-20T11:43:14;99781.41;;;24.35;84.86
73151;BME280;61354;50.758;6.106;2023-08-20T11:45:48;99771.56;;;24.43;87.48
73151;BME280;61354;50.758;6.106;2023-08-20T11:48:15;99767.75;;;24.50;87.15
73151;BME280;61354;50.758;6.106;2023-08-20T11:50:42;99767.34;;;24.51;85.85
73151;BME280;61354;50.758;6.106;2023-08-20T11:53:09;99763.47;;;24.42;87.41
73151;BME280;61354;50.758;6.106;2023-08-20T11:55:35;99760.41;;;24.52;86.57
73151;BME280;61354;50.758;6.106;2023-08-20T11:58:02;99755.97;;;24.51;88.03
73151;BME280;61354;50.758;6.106;2023-08-20T12:00:30;99763.66;;;24.71;87.52
73151;BME280;61354;50.758;6.106;2023-08-20T12:02:57;99751.59;;;24.83;83.32
73151;BME280;61354;50.758;6.106;2023-08-20T12:05:29;99756.59;;;24.95;87.62
73151;BME280;61354;50.758;6.106;2023-08-20T12:07:59;99751.16;;;25.21;85.95
73151;BME280;61354;50.758;6.106;2023-08-20T12:10:27;99746.50;;;24.94;82.00
73151;BME280;61354;50.758;6.106;2023-08-20T12:12:54;99745.41;;;24.88;85.71
73151;BME280;61354;50.758;6.106;2023-08-20T12:15:20;99740.00;;;24.94;85.34
73151;BME280;61354;50.758;6.106;2023-08-20T12:17:59;99735.59;;;25.25;83.26
73151;BME280;61354;50.758;6.106;2023-08-20T12:20:29;99739.47;;;24.99;78.06
73151;BME280;61354;50.758;6.106;2023-08-20T12:22:59;99747.97;;;25.19;81.46
73151;BME280;61354;50.758;6.106;2023-08-20T12:25:29;99741.22;;;25.45;83.24
73151;BME280;61354;50.758;6.106;2023-08-20T12:27:55;99741.59;;;25.47;79.40
73151;BME280;61354;50.758;6.106;2023-08-20T12:30:21;99744.25;;;25.38;77.72
73151;BME280;61354;50.758;6.106;2023-08-20T12:32:47;99738.72;;;25.64;81.74
73151;BME280;61354;50.758;6.106;2023-08-20T12:35:13;99737.47;;;25.48;77.72
73151;BME280;61354;50.758;6.106;2023-08-20T12:37:38;99740.25;;;25.36;77.87
73151;BME280;61354;50.758;6.106;2023-08-20T12:40:05;99736.06;;;25.40;76.99
73151;BME280;61354;50.758;6.106;2023-08-20T12:42:37;99732.25;;;25.31;79.81
73151;BME280;61354;50.758;6.106;2023-08-20T12:45:05;99739.63;;;25.28;81.29
73151;BME280;61354;50.758;6.106;2023-08-20T12:47:31;99734.47;;;25.39;81.26
73151;BME280;61354;50.758;6.106;2023-08-20T12:49:56;99733.06;;;25.31;79.37
73151;BME280;61354;50.758;6.106;2023-08-20T12:52:22;99730.03;;;25.22;75.62
73151;BME280;61354;50.758;6.106;2023-08-20T12:54:47;99730.56;;;25.33;75.35
73151;BME280;61354;50.758;6.106;2023-08-20T12:57:13;99724.84;;;25.49;74.24
73151;BME280;61354;50.758;6.106;2023-08-20T12:59:38;99732.31;;;25.60;73.42
73151;BME280;61354;50.758;6.106;2023-08-20T13:02:04;99728.56;;;25.79;74.56
73151;BME280;61354;50.758;6.106;2023-08-20T13:04:30;99725.22;;;25.84;71.45
73151;BME280;61354;50.758;6.106;2023-08-20T13:06:57;99726.88;;;25.82;77.47
73151;BME280;61354;50.758;6.106;2023-08-20T13:09:23;99725.53;;;25.70;72.58